Time;durP1;ratioP1;P1;durP2;ratioP2;P2;SDS_P1;SDS_P2;PMS_P1;PMS_P2;Temp;Humidity;BMP_temperature;BMP_pressure;BME280_temperature;BME280_humidity;BME280_pressure;Samples;Min_cycle;Max_cycle;Signal;HPM_P1;HPM_P2
2023/03/01 00:00:53;;;;;;;42.83;15.48;;;;;;;5.45;100.00;100995.13;4909594;29;20047;-87
2023/03/01 00:03:18;;;;;;;42.95;16.85;;;;;;;5.47;100.00;100998.44;4911684;29;20040;-91
2023/03/01 00:05:47;;;;;;;34.85;14.38;;;;;;;5.75;100.00;100991.22;4926331;29;20040;-88
2023/03/01 00:08:12;;;;;;;38.90;15.70;;;;;;;5.68;100.00;100996.03;4908431;29;20044;-90
2023/03/01 00:10:41;;;;;;;39.85;14.63;;;;;;;5.57;100.00;100989.03;4908098;29;20052;-89
2023/03/01 00:13:07;;;;;;;38.25;14.30;;;;;;;5.60;100.00;100997.56;4907753;29;20120;-88
2023/03/01 00:15:34;;;;;;;35.35;13.73;;;;;;;5.67;100.00;100996.16;4921916;29;20076;-89
2023/03/01 00:18:00;;;;;;;34.78;12.40;;;;;;;5.52;100.00;100991.16;4905791;29;20041;-89
2023/03/01 00:20:25;;;;;;;28.17;12.43;;;;;;;5.52;100.00;100995.50;4909854;29;20032;-88
2023/03/01 00:22:54;;;;;;;23.58;9.88;;;;;;;5.46;100.00;100981.16;4926420;29;20044;-88
2023/03/01 00:25:19;;;;;;;20.23;9.10;;;;;;;5.34;100.00;100992.50;4908922;29;20053;-88
2023/03/01 00:27:47;;;;;;;23.50;9.55;;;;;;;5.39;100.00;100985.16;4926899;29;20055;-89
2023/03/01 00:30:12;;;;;;;22.73;9.88;;;;;;;5.52;100.00;100990.31;4927623;29;20072;-89
2023/03/01 00:32:38;;;;;;;23.35;10.00;;;;;;;5.56;100.00;100992.56;4916947;29;20044;-87
2023/03/01 00:35:06;;;;;;;28.15;9.48;;;;;;;5.49;100.00;100986.13;4928043;29;20045;-88
2023/03/01 00:37:35;;;;;;;33.35;11.77;;;;;;;5.16;100.00;100974.66;4898424;29;20052;-90
2023/03/01 00:40:00;;;;;;;20.75;10.48;;;;;;;5.16;100.00;100985.06;4914300;29;20041;-89
2023/03/01 00:42:26;;;;;;;25.92;11.23;;;;;;;5.54;100.00;100972.78;4919069;29;20057;-91
2023/03/01 00:44:54;;;;;;;28.75;10.65;;;;;;;5.20;100.00;100985.66;4911691;29;20175;-89
2023/03/01 00:47:20;;;;;;;24.67;10.35;;;;;;;5.35;100.00;100988.94;4921066;29;20099;-91
2023/03/01 00:49:46;;;;;;;23.55;9.90;;;;;;;5.41;100.00;100975.47;4914838;29;20040;-91
2023/03/01 00:52:11;;;;;;;24.33;10.00;;;;;;;5.23;100.00;100980.25;4933822;29;20053;-91
2023/03/01 00:54:37;;;;;;;22.73;9.65;;;;;;;5.22;100.00;100968.19;4931631;29;20032;-90
2023/03/01 00:57:02;;;;;;;18.45;9.48;;;;;;;5.24;100.00;100964.50;4914095;29;20080;-91
2023/03/01 00:59:28;;;;;;;21.38;9.35;;;;;;;5.47;100.00;100972.41;4914504;29;20061;-90
2023/03/01 01:01:53;;;;;;;25.30;10.43;;;;;;;5.09;100.00;100978.63;4912811;29;20048;-91
2023/03/01 01:04:19;;;;;;;19.92;7.95;;;;;;;5.28;100.00;100976.34;4928592;29;20063;-91
2023/03/01 01:06:46;;;;;;;23.95;8.77;;;;;;;5.54;100.00;100972.78;4914227;29;20076;-91
2023/03/01 01:09:18;;;;;;;21.23;8.65;;;;;;;5.55;100.00;100974.44;4912974;29;20040;-90
2023/03/01 01:11:49;;;;;;;20.17;9.40;;;;;;;5.39;100.00;100959.94;4912599;29;20124;-88
2023/03/01 01:14:16;;;;;;;26.83;11.35;;;;;;;5.34;100.00;100966.47;4912153;29;20479;-89
2023/03/01 01:16:45;;;;;;;31.65;13.75;;;;;;;5.22;100.00;100953.38;4912198;29;20047;-88
2023/03/01 01:19:30;;;;;;;31.95;13.63;;;;;;;4.96;100.00;100966.53;4927070;29;20047;-89
2023/03/01 01:21:56;;;;;;;36.63;14.65;;;;;;;5.29;100.00;100958.97;4912525;29;20041;-90
2023/03/01 01:24:22;;;;;;;39.33;14.57;;;;;;;4.94;100.00;100971.00;4912675;29;20056;-91
2023/03/01 01:26:47;;;;;;;38.80;14.40;;;;;;;4.92;100.00;100964.25;4912376;29;20418;-91
2023/03/01 01:29:13;;;;;;;39.45;15.57;;;;;;;4.81;100.00;100955.41;4907234;29;20049;-87
2023/03/01 01:31:41;;;;;;;30.15;12.77;;;;;;;4.97;100.00;100959.53;4918991;29;20024;-88
2023/03/01 01:34:11;;;;;;;31.88;12.63;;;;;;;5.11;100.00;100959.38;4904642;29;20044;-90
2023/03/01 01:36:36;;;;;;;43.85;13.73;;;;;;;5.18;100.00;100946.75;4905101;29;20077;-91
2023/03/01 01:39:03;;;;;;;30.73;11.90;;;;;;;4.87;100.00;100948.94;4902498;29;20045;-91
2023/03/01 01:41:29;;;;;;;29.20;10.93;;;;;;;4.85;100.00;100945.63;4903240;29;20096;-88
2023/03/01 01:44:16;;;;;;;34.22;10.85;;;;;;;5.07;100.00;100944.06;4919928;29;20097;-88
2023/03/01 01:46:53;;;;;;;29.63;10.40;;;;;;;5.11;100.00;100935.94;4903939;29;20404;-90
2023/03/01 01:49:42;;;;;;;28.00;10.38;;;;;;;4.98;100.00;100943.81;4904114;29;20056;-89
2023/03/01 01:52:20;;;;;;;28.38;10.32;;;;;;;4.83;100.00;100926.69;4903942;29;20053;-89
2023/03/01 01:55:06;;;;;;;23.15;8.43;;;;;;;5.04;100.00;100939.94;4907683;29;20069;-88
2023/03/01 01:57:40;;;;;;;18.95;7.82;;;;;;;4.82;100.00;100917.22;4920834;29;20059;-88
2023/03/01 02:00:15;;;;;;;24.80;8.43;;;;;;;4.83;100.00;100921.50;4904903;29;20063;-89
2023/03/01 02:02:43;;;;;;;24.50;9.02;;;;;;;4.87;100.00;100928.13;4912070;29;20055;-89
2023/03/01 02:05:31;;;;;;;23.33;8.95;;;;;;;4.86;100.00;100924.72;4911131;29;20045;-89
2023/03/01 02:07:58;;;;;;;29.08;9.32;;;;;;;4.85;100.00;100909.19;4912336;29;20041;-88
2023/03/01 02:10:27;;;;;;;26.38;9.32;;;;;;;5.05;100.00;100907.75;4912120;29;20036;-88
2023/03/01 02:12:54;;;;;;;19.25;8.40;;;;;;;4.67;100.00;100906.97;4912894;29;20115;-90
2023/03/01 02:15:19;;;;;;;18.20;8.02;;;;;;;4.71;100.00;100898.00;4918038;29;20044;-88
2023/03/01 02:17:45;;;;;;;18.13;7.97;;;;;;;4.76;100.00;100896.88;4930437;29;20045;-91
2023/03/01 02:20:20;;;;;;;23.95;9.45;;;;;;;4.82;100.00;100899.00;4914592;29;20047;-89
2023/03/01 02:22:46;;;;;;;21.67;9.20;;;;;;;4.79;100.00;100894.03;4916312;29;20068;-91
2023/03/01 02:25:20;;;;;;;20.25;8.93;;;;;;;4.77;100.00;100894.13;4915897;29;20054;-90
2023/03/01 02:27:49;;;;;;;32.30;11.18;;;;;;;4.58;100.00;100892.03;4914649;29;20068;-91
2023/03/01 02:30:15;;;;;;;29.27;9.43;;;;;;;4.53;100.00;100888.94;4913332;29;20104;-89
2023/03/01 02:32:41;;;;;;;48.95;13.15;;;;;;;4.61;100.00;100881.41;4914722;29;20048;-90
2023/03/01 02:35:15;;;;;;;78.75;14.88;;;;;;;4.98;100.00;100883.09;4914314;29;20044;-91
2023/03/01 02:37:41;;;;;;;77.28;13.55;;;;;;;4.80;100.00;100870.50;4915935;29;20096;-91
2023/03/01 02:40:17;;;;;;;25.33;9.48;;;;;;;4.79;100.00;100868.84;4914556;29;20044;-89
2023/03/01 02:42:57;;;;;;;28.52;10.63;;;;;;;4.65;100.00;100872.44;4912936;29;20064;-90
2023/03/01 02:45:24;;;;;;;23.38;9.27;;;;;;;4.79;100.00;100879.25;4927380;29;20053;-89
2023/03/01 02:47:50;;;;;;;25.80;10.07;;;;;;;4.70;100.00;100875.53;4918516;29;20041;-89
2023/03/01 02:50:30;;;;;;;30.33;11.43;;;;;;;4.83;100.00;100880.72;4910748;29;20545;-89
2023/03/01 02:53:06;;;;;;;28.75;11.13;;;;;;;4.84;100.00;100871.97;4912963;29;20052;-88
2023/03/01 02:55:32;;;;;;;34.35;11.50;;;;;;;4.94;100.00;100868.66;4913417;29;20149;-90
2023/03/01 02:58:02;;;;;;;29.83;10.02;;;;;;;5.00;100.00;100858.63;4915433;29;20080;-91
2023/03/01 03:00:39;;;;;;;22.23;10.13;;;;;;;4.74;100.00;100854.53;4915509;29;20372;-89
2023/03/01 03:03:05;;;;;;;34.95;11.45;;;;;;;4.59;100.00;100854.69;4915312;29;20100;-89
2023/03/01 03:05:31;;;;;;;30.42;10.60;;;;;;;4.88;100.00;100850.91;4929960;29;20108;-91
2023/03/01 03:08:00;;;;;;;27.52;10.85;;;;;;;5.10;100.00;100855.34;4929403;29;20036;-90
2023/03/01 03:10:29;;;;;;;30.42;12.07;;;;;;;5.17;100.00;100861.78;4913319;29;20044;-89
2023/03/01 03:12:58;;;;;;;31.30;12.45;;;;;;;5.10;100.00;100860.56;4912782;29;20056;-90
2023/03/01 03:15:25;;;;;;;37.25;13.43;;;;;;;4.97;100.00;100865.84;4912596;29;20093;-90
2023/03/01 03:17:52;;;;;;;35.45;12.10;;;;;;;4.80;100.00;100843.66;4929656;29;20432;-90
2023/03/01 03:20:20;;;;;;;33.72;12.95;;;;;;;4.84;100.00;100855.50;4914283;29;20053;-90
2023/03/01 03:22:48;;;;;;;35.83;11.48;;;;;;;5.03;100.00;100855.00;4898385;29;20048;-91
2023/03/01 03:25:14;;;;;;;38.25;13.15;;;;;;;4.72;100.00;100863.28;4929219;29;20040;-91
2023/03/01 03:27:43;;;;;;;30.60;11.90;;;;;;;4.99;100.00;100862.19;4929315;29;20079;-90
2023/03/01 03:41:34;;;;;;;29.10;10.00;;;;;;;4.88;100.00;100849.13;4911700;29;20047;-90
2023/03/01 03:44:00;;;;;;;35.28;10.95;;;;;;;4.86;100.00;100848.41;4913776;29;20510;-89
2023/03/01 03:46:25;;;;;;;31.08;11.57;;;;;;;4.74;100.00;100844.94;4917970;29;20083;-89
2023/03/01 03:48:58;;;;;;;28.75;10.70;;;;;;;4.77;100.00;100833.47;4908822;29;20040;-88
2023/03/01 03:51:52;;;;;;;28.00;10.50;;;;;;;4.84;100.00;100825.13;4906044;29;20037;-88
2023/03/01 03:54:23;;;;;;;25.65;9.30;;;;;;;4.86;100.00;100836.25;4904483;29;20044;-89
2023/03/01 03:56:49;;;;;;;23.92;9.10;;;;;;;4.73;100.00;100840.66;4910839;29;20045;-90
2023/03/01 03:59:14;;;;;;;28.52;10.05;;;;;;;4.59;100.00;100831.28;4898640;29;20096;-87
2023/03/01 04:01:40;;;;;;;34.67;10.38;;;;;;;4.51;100.00;100833.59;4905892;29;20111;-91
2023/03/01 04:04:07;;;;;;;28.20;10.13;;;;;;;4.54;100.00;100822.97;4908262;29;20091;-89
2023/03/01 04:06:33;;;;;;;24.88;9.07;;;;;;;4.43;100.00;100824.56;4907485;29;20045;-90
2023/03/01 04:09:02;;;;;;;26.13;8.98;;;;;;;4.52;100.00;100827.44;4910840;29;20040;-89
2023/03/01 04:11:27;;;;;;;21.33;8.27;;;;;;;4.47;100.00;100811.34;4895325;29;20124;-90
2023/03/01 04:13:56;;;;;;;22.25;7.75;;;;;;;4.63;100.00;100819.69;4913112;29;20558;-90
2023/03/01 04:16:23;;;;;;;19.10;6.43;;;;;;;4.57;100.00;100826.16;4911680;29;20503;-90
2023/03/01 04:18:48;;;;;;;19.27;6.80;;;;;;;4.45;100.00;100829.69;4913465;29;20099;-90
2023/03/01 04:21:21;;;;;;;17.60;7.90;;;;;;;4.57;100.00;100820.16;4912862;29;20053;-89
2023/03/01 04:23:47;;;;;;;22.33;7.57;;;;;;;4.55;100.00;100816.84;4914341;29;20052;-90
2023/03/01 04:26:12;;;;;;;22.80;10.00;;;;;;;4.43;100.00;100824.56;4917174;29;20039;-90
2023/03/01 04:28:42;;;;;;;24.83;9.20;;;;;;;4.59;100.00;100810.47;4921752;29;20558;-90
2023/03/01 04:31:15;;;;;;;35.30;11.40;;;;;;;4.65;100.00;100812.63;4938070;29;20054;-90
2023/03/01 04:33:45;;;;;;;39.85;13.90;;;;;;;4.48;100.00;100800.00;4904552;29;20063;-89
2023/03/01 04:36:12;;;;;;;37.10;13.55;;;;;;;4.65;100.00;100804.81;4936878;29;20056;-90
2023/03/01 04:38:39;;;;;;;38.10;13.35;;;;;;;4.68;100.00;100815.00;4933446;29;20077;-90
2023/03/01 04:41:07;;;;;;;33.83;13.27;;;;;;;4.76;100.00;100809.22;4916655;29;20051;-90
2023/03/01 04:43:36;;;;;;;35.17;13.13;;;;;;;4.57;100.00;100817.56;4916474;29;20064;-90
2023/03/01 04:46:04;;;;;;;33.88;12.32;;;;;;;4.54;100.00;100802.19;4914386;29;20104;-90
2023/03/01 04:48:31;;;;;;;38.42;12.82;;;;;;;4.65;100.00;100804.81;4913931;29;20036;-91
2023/03/01 04:50:57;;;;;;;31.80;11.52;;;;;;;4.54;100.00;100799.56;4912527;29;20146;-89
2023/03/01 04:53:26;;;;;;;36.38;13.60;;;;;;;4.40;100.00;100795.34;4912275;29;20059;-89
2023/03/01 04:55:51;;;;;;;43.88;12.30;;;;;;;4.47;100.00;100804.38;4926627;29;20052;-89
2023/03/01 04:58:17;;;;;;;28.15;11.05;;;;;;;4.46;100.00;100794.09;4916158;29;20044;-90
2023/03/01 05:00:42;;;;;;;28.83;10.95;;;;;;;4.41;100.00;100792.66;4926923;29;20060;-89
2023/03/01 05:03:08;;;;;;;28.27;11.32;;;;;;;4.49;100.00;100789.50;4912776;29;20074;-91
2023/03/01 05:05:39;;;;;;;33.85;11.13;;;;;;;4.74;100.00;100792.09;4925419;29;20123;-88
2023/03/01 05:08:07;;;;;;;36.50;13.00;;;;;;;4.67;100.00;100797.72;4910585;29;20068;-92
2023/03/01 05:10:35;;;;;;;33.38;12.43;;;;;;;4.54;100.00;100789.19;4912473;29;20038;-90
2023/03/01 05:13:01;;;;;;;41.25;13.40;;;;;;;4.65;100.00;100791.00;4910136;29;20051;-90
2023/03/01 05:15:29;;;;;;;37.33;14.45;;;;;;;4.57;100.00;100791.53;4908081;29;20066;-89
2023/03/01 05:17:58;;;;;;;55.72;14.40;;;;;;;4.55;100.00;100796.84;4911221;29;20495;-88
2023/03/01 05:20:28;;;;;;;37.67;13.25;;;;;;;4.45;100.00;100777.66;4912352;29;20520;-89
2023/03/01 05:22:57;;;;;;;37.50;12.80;;;;;;;4.64;100.00;100786.72;4928438;29;20073;-90
2023/03/01 05:25:24;;;;;;;41.78;11.82;;;;;;;4.57;100.00;100781.16;4911222;29;20048;-89
2023/03/01 05:27:50;;;;;;;33.72;11.35;;;;;;;4.75;100.00;100793.75;4910902;29;20053;-90
2023/03/01 05:30:17;;;;;;;32.83;9.40;;;;;;;4.81;100.00;100794.09;4911009;29;20376;-89
2023/03/01 05:32:49;;;;;;;23.90;8.80;;;;;;;4.87;100.00;100785.00;4910622;29;20049;-92
2023/03/01 05:35:16;;;;;;;32.22;9.10;;;;;;;4.74;100.00;100790.31;4910992;29;20052;-89
2023/03/01 05:37:44;;;;;;;22.55;7.57;;;;;;;4.68;100.00;100790.75;4909555;29;20064;-89
2023/03/01 05:40:16;;;;;;;23.17;7.53;;;;;;;4.56;100.00;100793.31;4909928;29;20347;-91
2023/03/01 05:42:47;;;;;;;22.35;6.70;;;;;;;4.44;100.00;100781.22;4911585;29;20058;-90
2023/03/01 05:45:14;;;;;;;20.40;7.43;;;;;;;4.35;100.00;100782.72;4926730;29;20075;-90
2023/03/01 05:47:44;;;;;;;17.23;7.03;;;;;;;4.59;100.00;100787.06;4911384;29;20077;-89
2023/03/01 05:50:21;;;;;;;18.92;6.93;;;;;;;4.59;100.00;100774.06;4910935;29;20048;-90
2023/03/01 05:53:01;;;;;;;21.92;6.78;;;;;;;4.57;100.00;100779.34;4926172;29;20061;-89
2023/03/01 05:55:30;;;;;;;26.42;8.27;;;;;;;4.43;100.00;100779.56;4911219;29;20048;-90
2023/03/01 05:57:58;;;;;;;23.92;8.85;;;;;;;4.27;100.00;100779.81;4911157;29;20048;-88
2023/03/01 06:00:24;;;;;;;22.13;8.32;;;;;;;4.36;100.00;100781.75;4926216;29;20044;-88
2023/03/01 06:02:53;;;;;;;17.17;7.03;;;;;;;4.24;100.00;100775.69;4927228;29;20053;-89
2023/03/01 06:05:18;;;;;;;24.88;7.43;;;;;;;4.33;100.00;100774.19;4909518;29;20035;-87
2023/03/01 06:07:44;;;;;;;17.45;6.50;;;;;;;4.30;100.00;100774.38;4921298;29;20044;-88
2023/03/01 06:10:11;;;;;;;22.10;7.63;;;;;;;4.30;100.00;100784.78;4909345;29;20103;-88
2023/03/01 06:12:38;;;;;;;27.73;9.05;;;;;;;4.29;100.00;100790.94;4913770;29;20072;-90
2023/03/01 06:15:06;;;;;;;23.02;8.93;;;;;;;4.18;100.00;100781.31;4914011;29;20044;-90
2023/03/01 06:17:37;;;;;;;23.85;8.68;;;;;;;4.24;100.00;100790.44;5103326;23;20066;-90
2023/03/01 06:20:11;;;;;;;21.38;7.80;;;;;;;4.14;100.00;100759.06;4950117;29;20048;-90
2023/03/01 06:22:37;;;;;;;22.90;7.97;;;;;;;4.42;100.00;100781.31;4934314;29;20048;-89
2023/03/01 06:25:03;;;;;;;25.73;7.28;;;;;;;4.38;100.00;100777.28;4933144;29;20078;-90
2023/03/01 06:27:28;;;;;;;24.92;7.22;;;;;;;4.43;100.00;100780.38;4933407;29;20048;-90
2023/03/01 06:29:55;;;;;;;26.10;8.95;;;;;;;4.29;100.00;100777.94;4949398;29;20052;-90
2023/03/01 06:32:20;;;;;;;29.25;10.98;;;;;;;4.28;100.00;100784.06;4934617;29;20419;-90
2023/03/01 06:34:48;;;;;;;33.83;9.73;;;;;;;4.32;100.00;100790.69;4949937;28;20056;-90
2023/03/01 06:37:14;;;;;;;35.97;12.23;;;;;;;4.23;100.00;100783.56;4933980;29;20060;-90
2023/03/01 06:39:40;;;;;;;30.48;9.95;;;;;;;4.19;100.00;100766.53;4934827;29;20044;-91
2023/03/01 06:42:09;;;;;;;35.05;13.18;;;;;;;4.33;100.00;100792.38;4937342;29;20055;-90
2023/03/01 06:44:36;;;;;;;41.35;14.00;;;;;;;4.17;100.00;100776.22;4954501;28;20123;-91
2023/03/01 06:47:03;;;;;;;35.65;13.25;;;;;;;4.34;100.00;100785.41;4955481;29;20042;-91
2023/03/01 06:49:28;;;;;;;35.00;13.75;;;;;;;4.28;100.00;100776.28;4954575;29;20032;-90
2023/03/01 06:51:54;;;;;;;28.52;11.93;;;;;;;4.42;100.00;100778.72;4953643;29;20088;-91
2023/03/01 06:54:22;;;;;;;34.72;12.68;;;;;;;4.40;100.00;100779.75;4921928;29;20059;-91
2023/03/01 06:56:48;;;;;;;28.85;11.18;;;;;;;4.42;100.00;100775.28;4921273;29;20040;-87
2023/03/01 06:59:13;;;;;;;25.75;9.68;;;;;;;4.30;100.00;100779.59;4931455;29;20056;-89
2023/03/01 07:01:39;;;;;;;26.48;10.13;;;;;;;4.38;100.00;100782.47;4929428;29;20048;-91
2023/03/01 07:04:04;;;;;;;33.75;13.00;;;;;;;4.33;100.00;100778.53;4952734;29;20387;-89
2023/03/01 07:06:30;;;;;;;29.65;12.50;;;;;;;4.34;100.00;100780.22;4948412;29;20036;-91
2023/03/01 07:08:56;;;;;;;29.05;10.27;;;;;;;4.42;100.00;100783.91;4934045;29;20130;-90
2023/03/01 07:11:22;;;;;;;26.85;10.65;;;;;;;4.34;100.00;100783.66;4943998;29;20615;-89
2023/03/01 07:13:47;;;;;;;34.00;12.65;;;;;;;4.56;100.00;100780.31;4942417;28;20410;-87
2023/03/01 07:16:14;;;;;;;35.08;12.82;;;;;;;4.43;100.00;100774.34;4925960;29;20063;-86
2023/03/01 07:18:40;;;;;;;33.60;12.77;;;;;;;4.36;100.00;100784.38;4935973;29;20053;-87
2023/03/01 07:21:11;;;;;;;29.33;12.52;;;;;;;4.32;100.00;100782.91;4957183;29;20099;-91
2023/03/01 07:23:37;;;;;;;38.40;15.75;;;;;;;4.51;100.00;100781.56;4945432;29;20074;-90
2023/03/01 07:26:03;;;;;;;29.40;13.43;;;;;;;4.51;100.00;100791.97;4957652;29;20050;-88
2023/03/01 07:28:28;;;;;;;34.38;12.80;;;;;;;4.36;100.00;100784.38;4929709;29;20044;-89
2023/03/01 07:30:54;;;;;;;28.55;11.57;;;;;;;4.36;100.00;100784.38;4943913;29;20058;-89
2023/03/01 07:33:20;;;;;;;30.10;12.70;;;;;;;4.55;100.00;100788.22;4928434;29;20106;-86
2023/03/01 07:35:46;;;;;;;28.67;10.32;;;;;;;4.42;100.00;100785.66;4932321;29;20045;-89
2023/03/01 07:38:12;;;;;;;36.00;11.32;;;;;;;4.58;100.00;100788.00;4950679;29;20035;-86
2023/03/01 07:40:37;;;;;;;25.83;11.38;;;;;;;4.63;100.00;100804.09;4935883;29;20095;-85
2023/03/01 07:43:03;;;;;;;28.65;11.93;;;;;;;4.39;100.00;100789.34;4944190;29;20062;-85
2023/03/01 07:45:29;;;;;;;29.10;12.32;;;;;;;4.63;100.00;100791.09;4948447;29;20512;-86
2023/03/01 07:47:55;;;;;;;37.58;15.10;;;;;;;4.68;100.00;100788.97;4948671;29;20039;-87
2023/03/01 07:50:21;;;;;;;34.75;13.93;;;;;;;4.67;100.00;100797.72;4934309;28;20043;-86
2023/03/01 07:52:48;;;;;;;27.27;11.75;;;;;;;4.43;100.00;100793.38;4959991;29;20456;-90
2023/03/01 07:55:15;;;;;;;23.60;10.57;;;;;;;4.65;100.00;100788.38;4954699;29;20498;-88
2023/03/01 07:57:41;;;;;;;22.92;10.05;;;;;;;4.53;100.00;100795.31;4931119;29;20097;-88
2023/03/01 08:00:09;;;;;;;22.25;11.10;;;;;;;4.67;100.00;100782.13;4930258;29;20446;-85
2023/03/01 08:02:35;;;;;;;18.65;9.43;;;;;;;4.57;100.00;100786.34;4925984;29;20050;-85
2023/03/01 08:05:00;;;;;;;20.40;9.55;;;;;;;4.52;100.00;100772.81;4957210;29;20255;-85
2023/03/01 08:07:26;;;;;;;27.90;11.27;;;;;;;4.67;100.00;100773.50;4947756;29;20099;-85
2023/03/01 08:09:52;;;;;;;28.05;11.65;;;;;;;4.53;100.00;100764.13;4922561;29;20043;-87
2023/03/01 08:12:17;;;;;;;24.50;10.48;;;;;;;4.60;100.00;100775.72;4943157;29;20059;-87
2023/03/01 08:14:43;;;;;;;23.55;9.77;;;;;;;4.61;100.00;100779.13;4942613;29;20183;-84
2023/03/01 08:17:12;;;;;;;22.52;11.02;;;;;;;4.75;100.00;100772.94;4935459;29;20083;-86
2023/03/01 08:19:39;;;;;;;25.15;10.10;;;;;;;4.70;100.00;100792.28;4946281;29;20024;-87
2023/03/01 08:22:04;;;;;;;23.08;10.70;;;;;;;4.90;100.00;100787.38;4965831;29;20043;-86
2023/03/01 08:24:30;;;;;;;27.67;10.38;;;;;;;4.69;100.00;100780.22;4947998;29;20533;-84
2023/03/01 08:26:55;;;;;;;29.85;10.57;;;;;;;4.84;100.00;100782.66;4953148;29;20032;-84
2023/03/01 08:29:21;;;;;;;30.73;11.18;;;;;;;4.92;100.00;100782.94;4943999;29;20051;-82
2023/03/01 08:31:48;;;;;;;31.63;10.35;;;;;;;4.82;100.00;100794.94;4938158;29;20059;-83
2023/03/01 08:34:15;;;;;;;18.58;8.23;;;;;;;4.77;100.00;100791.84;4938773;29;20044;-80
2023/03/01 08:36:43;;;;;;;20.08;8.85;;;;;;;4.92;100.00;100795.94;4955785;29;20494;-79
2023/03/01 08:39:11;;;;;;;27.08;8.68;;;;;;;5.18;100.00;100785.34;4936227;29;20039;-81
2023/03/01 08:41:38;;;;;;;14.80;7.30;;;;;;;4.87;100.00;100777.22;4936193;29;20054;-81
2023/03/01 08:44:05;;;;;;;17.35;7.30;;;;;;;4.97;100.00;100773.00;4936261;29;20371;-81
2023/03/01 08:46:35;;;;;;;14.23;5.93;;;;;;;5.05;100.00;100779.38;4933880;29;20110;-82
2023/03/01 08:49:07;;;;;;;19.83;6.05;;;;;;;5.04;100.00;100785.53;4950422;29;20078;-83
2023/03/01 08:51:36;;;;;;;14.77;5.57;;;;;;;5.02;100.00;100785.66;4933815;29;20036;-80
2023/03/01 08:54:03;;;;;;;23.10;5.90;;;;;;;5.05;100.00;100790.63;4951756;29;20050;-81
2023/03/01 08:56:29;;;;;;;15.60;6.55;;;;;;;5.13;100.00;100788.28;4954443;29;20034;-79
2023/03/01 08:58:54;;;;;;;18.88;6.88;;;;;;;5.19;100.00;100792.19;4936035;29;20043;-82
2023/03/01 09:01:20;;;;;;;14.38;5.97;;;;;;;5.15;100.00;100801.19;4935659;29;20039;-81
2023/03/01 09:03:46;;;;;;;15.32;7.53;;;;;;;5.22;100.00;100801.56;4936098;29;20056;-80
2023/03/01 09:06:13;;;;;;;19.17;7.57;;;;;;;5.17;100.00;100801.06;4934333;29;20039;-83
2023/03/01 09:08:42;;;;;;;18.77;7.65;;;;;;;5.17;100.00;100790.63;4934051;29;20086;-81
2023/03/01 09:11:13;;;;;;;14.07;6.63;;;;;;;5.28;100.00;100788.88;4934363;29;20493;-82
2023/03/01 09:13:39;;;;;;;13.30;6.45;;;;;;;5.45;100.00;100784.16;4937641;29;20079;-84
2023/03/01 09:16:07;;;;;;;12.80;5.65;;;;;;;5.32;100.00;100793.88;4936791;29;20043;-86
2023/03/01 09:18:36;;;;;;;14.50;6.60;;;;;;;5.60;100.00;100795.19;4944645;29;20119;-85
2023/03/01 09:21:09;;;;;;;17.08;5.65;;;;;;;5.20;100.00;100788.66;4940450;29;20039;-86
2023/03/01 09:23:36;;;;;;;14.20;5.38;;;;;;;5.31;100.00;100794.81;4942661;29;20062;-85
2023/03/01 09:26:06;;;;;;;16.42;5.68;;;;;;;5.43;100.00;100793.88;4947341;29;20049;-87
2023/03/01 09:28:32;;;;;;;16.80;5.25;;;;;;;5.45;100.00;100776.34;4943488;29;20049;-85
2023/03/01 09:31:03;;;;;;;12.88;4.95;;;;;;;5.29;100.00;100790.53;4929489;29;20031;-84
2023/03/01 09:33:30;;;;;;;12.90;5.70;;;;;;;5.33;100.00;100790.34;4929512;29;20039;-84
2023/03/01 09:36:02;;;;;;;12.20;4.93;;;;;;;5.21;100.00;100768.63;4950098;29;20061;-86
2023/03/01 09:38:29;;;;;;;16.92;5.65;;;;;;;5.44;100.00;100779.91;4944805;29;20042;-85
2023/03/01 09:40:55;;;;;;;15.13;5.82;;;;;;;7.17;100.00;100790.56;4926712;29;20070;-87
2023/03/01 09:43:54;;;;;;;12.32;5.63;;;;;;;7.68;100.00;100756.69;4948618;29;20126;-85
2023/03/01 09:46:23;;;;;;;11.27;5.03;;;;;;;7.51;100.00;100740.69;4927093;29;20375;-83
2023/03/01 09:49:11;;;;;;;8.07;4.13;;;;;;;7.41;100.00;100739.81;4924685;29;20047;-84
2023/03/01 09:51:37;;;;;;;17.83;6.32;;;;;;;7.07;100.00;100734.84;4949324;29;20035;-84
2023/03/01 09:54:04;;;;;;;15.80;6.85;;;;;;;7.45;100.00;100727.31;4944939;29;20150;-84
2023/03/01 09:56:36;;;;;;;15.05;6.57;;;;;;;7.19;100.00;100719.94;4925527;29;20043;-81
2023/03/01 09:59:14;;;;;;;14.82;7.35;;;;;;;7.46;100.00;100716.72;4924981;29;20063;-80
2023/03/01 10:02:00;;;;;;;14.70;6.97;;;;;;;7.61;100.00;100713.75;4946014;29;20047;-81
2023/03/01 10:04:38;;;;;;;11.65;7.45;;;;;;;7.85;100.00;100721.22;4942565;29;20483;-81
2023/03/01 10:07:10;;;;;;;16.20;8.13;;;;;;;7.71;100.00;100712.81;4942907;29;20058;-85
2023/03/01 10:09:41;;;;;;;20.55;6.97;;;;;;;7.71;100.00;100720.63;4941876;29;20048;-87
2023/03/01 10:12:13;;;;;;;15.75;6.63;;;;;;;7.64;100.00;100713.47;4941425;29;20031;-86
2023/03/01 10:14:59;;;;;;;13.90;6.78;;;;;;;7.46;100.00;100714.09;4929881;29;20043;-87
2023/03/01 10:17:49;;;;;;;19.23;6.50;;;;;;;7.76;100.00;100711.56;4939607;29;20498;-87
2023/03/01 10:20:50;;;;;;;16.92;6.30;;;;;;;7.78;100.00;100720.13;4934764;29;20581;-80
2023/03/01 10:23:16;;;;;;;19.15;6.95;;;;;;;7.33;100.00;100722.16;4916449;29;20047;-81
2023/03/01 10:26:10;;;;;;;14.70;5.40;;;;;;;7.84;100.00;100704.69;4939222;29;20528;-82
2023/03/01 10:29:01;;;;;;;13.18;5.03;;;;;;;7.65;100.00;100720.34;4937897;29;20050;-81
2023/03/01 10:31:36;;;;;;;12.38;5.60;;;;;;;7.91;100.00;100706.78;4937743;29;20031;-82
2023/03/01 10:34:07;;;;;;;17.70;6.28;;;;;;;8.05;100.00;100695.91;4937677;29;20094;-81
2023/03/01 10:36:34;;;;;;;13.05;6.15;;;;;;;7.76;100.00;100698.50;4935959;29;20043;-81
2023/03/01 10:39:11;;;;;;;14.77;5.15;;;;;;;7.73;100.00;100707.44;4939799;29;20163;-82
2023/03/01 10:41:52;;;;;;;10.43;5.32;;;;;;;8.27;100.00;100694.00;4937551;29;20067;-82
2023/03/01 10:44:36;;;;;;;11.48;5.53;;;;;;;8.36;100.00;100690.56;4936761;29;20044;-84
2023/03/01 10:47:02;;;;;;;8.13;5.65;;;;;;;7.99;100.00;100675.56;4936234;29;20039;-81
2023/03/01 10:49:27;;;;;;;11.40;5.53;;;;;;;8.20;100.00;100671.97;4954656;29;20545;-85
2023/03/01 10:51:54;;;;;;;11.35;4.90;;;;;;;8.36;100.00;100676.66;4939156;29;20027;-84
2023/03/01 10:54:32;;;;;;;11.02;4.93;;;;;;;8.62;100.00;100668.25;4936983;29;20052;-85
2023/03/01 10:57:01;;;;;;;10.40;4.78;;;;;;;8.06;100.00;100665.38;4936061;29;20044;-84
2023/03/01 10:59:29;;;;;;;9.85;4.30;;;;;;;8.00;100.00;100677.19;4939739;29;20402;-85
2023/03/01 11:02:21;;;;;;;14.20;4.40;;;;;;;8.19;100.00;100672.94;4938590;29;20050;-85
2023/03/01 11:05:12;;;;;;;12.50;4.45;;;;;;;7.92;100.00;100675.25;4938943;29;20044;-85
2023/03/01 11:07:58;;;;;;;9.93;4.55;;;;;;;8.03;100.00;100665.66;4927677;29;20051;-84
2023/03/01 11:10:30;;;;;;;10.35;3.90;;;;;;;8.34;100.00;100662.88;4936824;29;20114;-84
2023/03/01 11:13:13;;;;;;;13.53;3.67;;;;;;;7.72;100.00;100666.59;4954526;29;20047;-84
2023/03/01 11:15:39;;;;;;;9.00;3.58;;;;;;;8.41;100.00;100667.41;4937964;29;20032;-85
2023/03/01 11:18:17;;;;;;;12.40;3.88;;;;;;;8.35;100.00;100654.88;4937991;29;20058;-84
2023/03/01 11:20:43;;;;;;;14.35;4.30;;;;;;;8.70;100.00;100665.72;4938179;29;20050;-85
2023/03/01 11:23:15;;;;;;;9.07;4.63;;;;;;;8.59;100.00;100651.00;4954483;29;20099;-85
2023/03/01 11:25:51;;;;;;;11.85;4.57;;;;;;;8.64;100.00;100658.44;4951151;28;20050;-85
2023/03/01 11:28:19;;;;;;;9.60;4.60;;;;;;;8.32;100.00;100665.63;4937477;29;20040;-86
2023/03/01 11:30:51;;;;;;;11.90;4.57;;;;;;;8.07;100.00;100662.63;4937987;29;20047;-86
2023/03/01 11:34:00;;;;;;;9.82;3.90;;;;;;;8.20;100.00;100658.91;4953641;29;20438;-86
2023/03/01 11:36:43;;;;;;;10.15;3.75;;;;;;;8.44;100.00;100654.03;4952559;29;20054;-84